Beckley, WV

7:04 PM EDT on May 28, 2015 (GMT -0400)
Yeager Airport | | Change Station
CLOSE
Current Station
Airport
Location: Charleston,
Elevation: 981 ft
Nearby Weather Stations

Elev 981 ft 38.38 °N, 81.59 °W | Updated 10 minutes ago

Partly Cloudy
Partly Cloudy
83 °F
Feels Like 84 °F
N
4
Wind Variable Wind from NNE

Today
High -- | Low -- °F
--% Chance of Precip.
Yesterday
High -- | Low -- °F
Precip. -- in
6:06 AM 8:38 PM
Waxing Gibbous, 79% visible
Pressure 30.14 in
Visibility 10.0 miles
Clouds Few 4800 ft
Scattered Clouds 12000 ft
Mostly Cloudy 20000 ft
Heat Index 84 °F
Dew Point 62 °F
Humidity 49%
Rainfall 0.03 in
Snow Depth Not available.
UV 1 out of 12
Pollen 7.40 out of 12
Air Quality Not available.
Flu Activity Sporadic
METAR KCRW 282254Z 03003KT 10SM FEW048 SCT120 BKN200 28/17 A3016 RMK AO2 SLP204 T02830167 $

More Conditions Fewer Conditions

Pressure 30.14 in
Visibility 10.0 miles
Clouds Few 4800 ft
Scattered Clouds 12000 ft
Mostly Cloudy 20000 ft
Heat Index 84 °F
Dew Point 62 °F
Humidity 49%
Rainfall 0.03 in
Snow Depth Not available.
UV 1 out of 12
Pollen 7.40 out of 12
Air Quality Not available.
Flu Activity Sporadic
METAR KCRW 282254Z 03003KT 10SM FEW048 SCT120 BKN200 28/17 A3016 RMK AO2 SLP204 T02830167 $

More Conditions Fewer Conditions

10-Day Weather Forecast

Almanac

Astronomy

May. 28, 2015 Rise Set
Actual Time
Civil Twilight
Nautical Twilight
Astronomical Twilight
Moon
Length of Visible Light
Length of Day
Tomorrow will be .
, % of the Moon is Illuminated

Today's Extremes

State Highs State Lows

Community

WunderPhotos

Upload Photos

1,825,089 photos uploaded!

WunderBlogs® & News

Nearby

Air Quality

  Air Quality AQ Index Pollutant
Not available.

Snow Depth

Station Depth Elevation

Earthquake Activity

City Distance Mag. Time & Date
Minimum magnitude displayed is 2.5.

Coastal Water Temperatures

Place Temperature

Stations

Nearby Weather Stations

Station Location Temp. Windchill Dew Point Humidity Wind Precip. Elev Updated Type